METAR UND TAF INFORMATION
LTAI 251150Z 17011KT 130V190 9999 FEW030 24/17 Q1013 NOSIG

 FLUGHAFENKARTE

 RUNWAY INFORMATION
Runway 18C Runway length 11155 ft Runway width 148 ft
Runway elevation 176 ft Runway displaced threshold 0 ft Runway heading 186
Runway 36C Runway length 11155 ft Runway width 148 ft
Runway elevation 176 ft Runway displaced threshold 0 ft Runway heading 6
Runway 18L Runway length 11155 ft Runway width 148 ft
Runway elevation 176 ft Runway displaced threshold 0 ft Runway heading 186
Runway 36R Runway length 11155 ft Runway width 148 ft
Runway elevation 158 ft Runway displaced threshold 0 ft Runway heading 6
Runway 18R Runway length 9811 ft Runway width 148 ft
Runway elevation 172 ft Runway displaced threshold 0 ft Runway heading 186
Runway 36L Runway length 9811 ft Runway width 148 ft
Runway elevation 176 ft Runway displaced threshold 0 ft Runway heading 6

 AIRPORT FREQUENCIES
Type APP Name upper Frequency 122.05 MHZ
Type Approach Name arrival Frequency 119.65 MHZ
Type ATIS Name ATIS Frequency 118.275 MHZ
Type CLD Name CLNC DEL Frequency 123.175 MHZ
Type GND Name GND Frequency 121.9 MHZ
Type TWR Name TWR east Frequency 125 MHZ
Type TWR Name TWR west Frequency 126.1 MHZ

 AIRPORT NEAR NAVIGATION AIDS
Type DME Name Antalya Frequency 109100 KHZ
Type TACAN Name Antalya Frequency 115500 KHZ
Type VOR-DME Name Antalya Frequency 114000 KHZ
Type NDB Name Antalya Frequency 413 KHZ
Type VOR-DME Name Lara Frequency 113600 KHZ
Type NDB Name Antalya Frequency 302 KHZ